AOO weather

Altoona Blair County Airport
Altoona, Pennsylvania, United States

Public forecast

Using degrees Fahrenheit for public forecast. Weather courtesy of forecast.io.

METAR (pilot weather report)

Retrieved 2019/04/23 03:53 UTC (25 minutes ago):

KAOO 230353Z AUTO 23003KT 10SM CLR 12/06 A3011 RMK AO2 SLP196 T01170061

TAF (pilot weather forecast)

Forecast is more than 12 hours old.

Retrieved 2019/04/22 00:45 UTC (1 day ago):

TAF KAOO 222343Z 2300/2324 30008KT P6SM SKC FM230300 VRB03KT P6SM SKC FM231500 21010G19KT P6SM SCT120